HEBA

Borg El Arab International Airport

Alexandria, Egypt
METAR HEBA 231000Z 26011KT 9999 BKN020 14/07 Q1014 NOSIG
Observed Flight Rules
Jan-23 @ 10:00 UTC (2 hours ago) Marginal Visual Flight Rules
Wind Visibility Clouds
260° at 11 knots 10,000+ meters
  • Broken at 2,000' AGL
Temperatures Readings
Current 14°C / 57°F
Dewpoint 7°C / 45°F
Humidity 63%
Altimeter 29.94" Hg
Pressure 1014 hPa
Elevation 54
METAR HEBA 231000Z 26011KT 9999 BKN020 14/07 Q1014 NOSIG
Observed Flight Rules
Jan-23 @ 10:00 UTC
(2 hours ago)
MVFR
Wind Visibility
260° at 11 knots 10,000+ meters
Clouds
  • Broken at 2,000' AGL
Temperature Dewpoint
14°C / 57°F 7°C / 45°F
Humidity Altimeter Pressure
63% 29.94" Hg 1014 hPa